Time;durP1;ratioP1;P1;durP2;ratioP2;P2;SDS_P1;SDS_P2;PMS_P1;PMS_P2;Temp;Humidity;BMP_temperature;BMP_pressure;BME280_temperature;BME280_humidity;BME280_pressure;Samples;Min_cycle;Max_cycle;Signal;HPM_P1;HPM_P2
2021/06/21 00:00:04;;;;;;;;;8.00;8.00;;;;;19.96;73.74;99370.69;4995293;28;45279;-90
2021/06/21 00:02:29;;;;;;;;;8.00;7.50;;;;;19.98;73.27;99368.66;4977942;28;47237;-89
2021/06/21 00:04:55;;;;;;;;;9.00;8.00;;;;;19.88;73.31;99354.53;4981595;28;45223;-88
2021/06/21 00:07:21;;;;;;;;;8.00;8.00;;;;;20.01;73.16;99362.09;4981990;28;45165;-89
2021/06/21 00:09:47;;;;;;;;;9.25;9.25;;;;;19.89;73.00;99340.03;4998326;28;45218;-90
2021/06/21 00:12:14;;;;;;;;;9.75;8.00;;;;;20.01;73.47;99359.38;4981752;28;47937;-89
2021/06/21 00:14:40;;;;;;;;;10.25;9.75;;;;;19.73;73.36;99327.41;4998215;28;45963;-89
2021/06/21 00:17:06;;;;;;;;;7.50;7.50;;;;;19.88;73.15;99345.59;4981510;28;45291;-90
2021/06/21 00:19:32;;;;;;;;;6.25;6.25;;;;;19.88;73.14;99351.00;4981654;28;45149;-89
2021/06/21 00:21:58;;;;;;;;;9.75;7.00;;;;;19.94;73.41;99361.09;4981040;28;47295;-89
2021/06/21 00:24:24;;;;;;;;;8.00;8.00;;;;;19.89;73.51;99344.59;4997886;28;45920;-90
2021/06/21 00:26:51;;;;;;;;;8.00;8.00;;;;;19.91;74.34;99353.34;4998780;28;45217;-90
2021/06/21 00:29:17;;;;;;;;;9.00;7.50;;;;;19.98;73.83;99365.09;4981146;28;45152;-90
2021/06/21 00:31:43;;;;;;;;;6.25;6.00;;;;;19.76;73.46;99337.03;4997335;28;47252;-90
2021/06/21 00:34:08;;;;;;;;;6.75;6.75;;;;;19.87;73.53;99368.22;4997814;28;45646;-89
2021/06/21 00:36:34;;;;;;;;;10.50;8.25;;;;;19.93;73.73;99379.13;4981134;28;45503;-89
2021/06/21 00:38:59;;;;;;;;;9.50;8.50;;;;;19.79;74.18;99355.56;4981165;28;45265;-90
2021/06/21 00:41:25;;;;;;;;;10.50;8.00;;;;;19.63;73.47;99327.63;4980537;28;48175;-89
2021/06/21 00:43:50;;;;;;;;;9.50;8.50;;;;;19.62;74.04;99325.09;4980900;28;45211;-89
2021/06/21 00:46:16;;;;;;;;;9.00;8.00;;;;;19.63;73.97;99332.19;4980860;28;45317;-88
2021/06/21 00:48:42;;;;;;;;;9.50;8.25;;;;;19.41;73.91;99286.09;4981006;28;45323;-89
2021/06/21 00:51:08;;;;;;;;;8.00;8.00;;;;;19.79;74.38;99344.78;4998412;28;46133;-89
2021/06/21 00:53:34;;;;;;;;;8.25;8.25;;;;;19.88;74.00;99356.38;4980914;28;45882;-88
2021/06/21 00:56:00;;;;;;;;;9.00;9.00;;;;;19.78;73.92;99354.72;4997175;28;45242;-89
2021/06/21 00:58:26;;;;;;;;;10.50;8.00;;;;;19.62;74.05;99344.84;4980502;28;45395;-88
2021/06/21 01:00:52;;;;;;;;;11.25;8.25;;;;;19.84;73.93;99385.56;4980211;28;47181;-89
2021/06/21 01:03:19;;;;;;;;;8.00;8.00;;;;;19.82;73.90;99382.19;4980197;28;45252;-89
2021/06/21 01:05:45;;;;;;;;;14.25;10.50;;;;;19.80;74.14;99385.06;4996863;28;45239;-89
2021/06/21 01:08:10;;;;;;;;;10.25;10.25;;;;;19.66;74.15;99356.09;4980748;28;45421;-89
2021/06/21 01:10:39;;;;;;;;;9.00;7.25;;;;;19.75;74.17;99378.47;4980228;28;48221;-88
2021/06/21 01:13:26;;;;;;;;;10.00;10.00;;;;;19.79;74.21;99380.69;4980205;28;45710;-89
2021/06/21 01:16:20;;;;;;;;;13.25;11.00;;;;;19.70;74.04;99370.91;4980296;28;45184;-91
2021/06/21 01:18:58;;;;;;;;;10.25;10.25;;;;;19.77;73.97;99389.94;4899402;29;45448;-88
2021/06/21 01:22:15;;;;;;;;;13.50;11.00;;;;;19.67;74.02;99372.09;4882982;29;48668;-90
2021/06/21 01:24:59;;;;;;;;;10.25;9.50;;;;;19.73;74.08;99386.75;4915042;28;45605;-89
2021/06/21 01:27:42;;;;;;;;;14.25;13.25;;;;;19.61;74.14;99380.03;4898934;29;45335;-89
2021/06/21 01:30:14;;;;;;;;;12.25;12.25;;;;;19.54;73.92;99379.91;4899349;29;45243;-89
2021/06/21 01:33:00;;;;;;;;;13.00;12.25;;;;;19.51;73.51;99384.78;4882691;29;47033;-89
2021/06/21 01:35:36;;;;;;;;;12.00;10.50;;;;;19.45;73.69;99392.56;4914714;28;45605;-89
2021/06/21 01:38:05;;;;;;;;;10.00;9.00;;;;;19.36;73.40;99390.88;4883532;29;45213;-89
2021/06/21 01:40:39;;;;;;;;;11.50;8.75;;;;;19.27;73.47;99397.28;4915008;28;45174;-89
2021/06/21 01:43:06;;;;;;;;;9.00;8.00;;;;;19.00;73.22;99366.97;4914485;28;47062;-89
2021/06/21 01:45:33;;;;;;;;;8.50;7.00;;;;;18.95;73.35;99377.41;4914831;28;45876;-89
2021/06/21 01:48:01;;;;;;;;;8.50;6.00;;;;;18.84;72.98;99377.69;4883414;29;45283;-88
2021/06/21 01:50:27;;;;;;;;;7.75;6.50;;;;;18.76;72.98;99387.47;4883475;29;45270;-89
2021/06/21 01:53:00;;;;;;;;;7.00;5.00;;;;;18.78;73.03;99396.22;4882724;29;47468;-88
2021/06/21 01:55:29;;;;;;;;;5.00;5.00;;;;;18.68;72.90;99390.13;4913418;28;45519;-88
2021/06/21 01:57:57;;;;;;;;;4.25;4.25;;;;;18.56;73.44;99386.94;4979753;28;45258;-90
2021/06/21 02:00:23;;;;;;;;;5.75;4.50;;;;;18.26;73.46;99353.41;4980232;28;45071;-89
2021/06/21 02:02:54;;;;;;;;;5.00;4.00;;;;;18.49;73.20;99402.06;4979379;28;47422;-89
2021/06/21 02:05:20;;;;;;;;;3.00;3.00;;;;;18.21;73.75;99372.72;4995938;28;45523;-89
2021/06/21 02:07:48;;;;;;;;;4.00;3.00;;;;;18.34;73.71;99396.47;4996231;28;45378;-88
2021/06/21 02:10:16;;;;;;;;;3.75;3.00;;;;;18.29;74.05;99393.41;4979352;28;45382;-91
2021/06/21 02:12:42;;;;;;;;;3.00;3.00;;;;;18.20;74.02;99383.63;4979586;28;47427;-89
2021/06/21 02:15:08;;;;;;;;;4.00;3.00;;;;;18.01;73.69;99364.06;4985001;28;45643;-89
2021/06/21 02:17:37;;;;;;;;;3.00;3.00;;;;;18.19;74.00;99395.41;4959772;28;45319;-89
2021/06/21 02:20:05;;;;;;;;;4.75;3.00;;;;;18.02;73.96;99376.50;4960084;28;45091;-88
2021/06/21 02:22:31;;;;;;;;;3.75;2.00;;;;;18.13;74.28;99404.97;4959702;28;47478;-89
2021/06/21 02:25:04;;;;;;;;;2.00;2.00;;;;;17.99;74.11;99382.22;4959631;28;45279;-90
2021/06/21 02:27:30;;;;;;;;;3.25;3.00;;;;;18.05;74.04;99399.56;4959377;28;45460;-88
2021/06/21 02:29:56;;;;;;;;;2.00;2.00;;;;;17.99;74.36;99402.91;4959668;28;45352;-90
2021/06/21 02:32:23;;;;;;;;;3.00;2.00;;;;;17.66;74.51;99360.53;4975720;28;48131;-88
2021/06/21 02:34:53;;;;;;;;;2.75;2.00;;;;;17.76;74.93;99381.91;4976392;28;45281;-89
2021/06/21 02:37:19;;;;;;;;;2.50;2.50;;;;;17.82;74.59;99399.25;4959861;28;45261;-90
2021/06/21 02:39:45;;;;;;;;;2.00;2.00;;;;;17.89;74.44;99414.56;4976227;28;45416;-89
2021/06/21 02:42:12;;;;;;;;;2.25;2.00;;;;;17.89;74.47;99403.81;4975757;28;47026;-89
2021/06/21 02:44:37;;;;;;;;;3.00;3.00;;;;;17.81;74.44;99398.38;4959803;28;45593;-90
2021/06/21 02:47:04;;;;;;;;;1.00;1.00;;;;;17.89;74.65;99413.75;4959550;28;45242;-89
2021/06/21 02:49:30;;;;;;;;;2.00;2.00;;;;;17.77;74.87;99389.81;4960119;28;45358;-88
2021/06/21 02:52:04;;;;;;;;;3.50;2.00;;;;;17.91;74.85;99411.75;4959161;28;47202;-88
2021/06/21 02:54:51;;;;;;;;;4.75;4.00;;;;;17.90;74.45;99416.28;4959811;28;45540;-89
2021/06/21 02:57:27;;;;;;;;;3.75;2.75;;;;;17.77;74.94;99405.94;4959661;28;45132;-89
2021/06/21 02:59:54;;;;;;;;;2.00;2.00;;;;;17.73;74.64;99395.69;4977044;28;45371;-89
2021/06/21 03:02:20;;;;;;;;;2.00;2.00;;;;;17.70;74.60;99395.97;4978364;28;47199;-90
2021/06/21 03:04:47;;;;;;;;;5.25;3.00;;;;;17.81;75.14;99417.19;4995497;28;45169;-88
2021/06/21 03:07:15;;;;;;;;;3.50;3.00;;;;;17.53;75.23;99386.97;4979232;28;45294;-89
2021/06/21 03:09:45;;;;;;;;;3.50;3.50;;;;;17.74;75.29;99416.16;4979152;28;45472;-90
2021/06/21 03:12:12;;;;;;;;;2.00;2.00;;;;;17.51;75.10;99391.66;4978479;28;47992;-89
2021/06/21 03:14:43;;;;;;;;;2.75;2.25;;;;;17.42;75.29;99374.66;4978897;28;45172;-89
2021/06/21 03:17:10;;;;;;;;;2.75;2.75;;;;;17.64;75.62;99410.88;4978941;28;45359;-90
2021/06/21 03:19:37;;;;;;;;;5.25;5.00;;;;;17.38;75.43;99373.28;4979058;28;45239;-90
2021/06/21 03:22:04;;;;;;;;;3.50;3.50;;;;;17.44;75.22;99391.44;4978598;28;48047;-89
2021/06/21 03:24:30;;;;;;;;;4.00;4.00;;;;;17.58;75.76;99409.69;4978812;28;45575;-89
2021/06/21 03:26:55;;;;;;;;;6.75;2.00;;;;;17.64;75.60;99413.56;4978758;28;45428;-88
2021/06/21 03:29:22;;;;;;;;;4.00;4.00;;;;;17.59;75.86;99394.41;4978908;28;45412;-88
2021/06/21 03:31:50;;;;;;;;;5.00;3.25;;;;;17.49;75.66;99375.72;4978594;28;47397;-88
2021/06/21 03:34:23;;;;;;;;;5.50;3.75;;;;;17.62;75.37;99388.72;4994791;28;45591;-90
2021/06/21 03:36:49;;;;;;;;;3.50;3.50;;;;;17.69;75.40;99392.44;4978514;28;45181;-88
2021/06/21 03:39:15;;;;;;;;;4.25;4.25;;;;;17.42;75.25;99353.16;4981355;28;45351;-89
2021/06/21 03:41:41;;;;;;;;;6.00;4.50;;;;;17.72;74.99;99397.50;4981535;28;47409;-90
2021/06/21 03:44:06;;;;;;;;;6.50;5.50;;;;;17.72;74.99;99402.88;4982039;28;45230;-89
2021/06/21 03:46:32;;;;;;;;;6.00;4.50;;;;;17.59;75.37;99380.97;4982086;28;45237;-89
2021/06/21 03:48:58;;;;;;;;;5.75;3.75;;;;;17.63;75.26;99390.41;4982133;28;45236;-90
2021/06/21 03:51:24;;;;;;;;;3.50;3.50;;;;;17.50;75.07;99369.34;4981462;28;47298;-89
2021/06/21 03:53:50;;;;;;;;;6.50;4.00;;;;;17.63;75.04;99393.09;4999537;28;45477;-91
2021/06/21 03:56:16;;;;;;;;;5.50;4.00;;;;;17.57;75.15;99386.50;4981863;28;45141;-88
2021/06/21 03:58:41;;;;;;;;;4.50;4.50;;;;;17.47;75.23;99383.06;4999396;28;45221;-89
2021/06/21 04:01:07;;;;;;;;;5.00;5.00;;;;;17.70;75.41;99428.22;4999387;28;46380;-89
2021/06/21 04:03:32;;;;;;;;;6.75;4.00;;;;;17.64;75.24;99423.50;4998043;28;45144;-88
2021/06/21 04:05:58;;;;;;;;;7.00;5.50;;;;;17.20;75.39;99355.38;4981587;28;45517;-88
2021/06/21 04:08:23;;;;;;;;;7.00;5.00;;;;;17.63;75.75;99425.34;4981710;28;45117;-89
2021/06/21 04:10:49;;;;;;;;;6.00;5.00;;;;;17.37;74.94;99391.25;4981347;28;47578;-87
2021/06/21 04:13:16;;;;;;;;;7.00;6.25;;;;;17.49;75.24;99410.63;4981246;28;45995;-89
2021/06/21 04:15:43;;;;;;;;;6.00;5.00;;;;;17.10;75.56;99351.91;4981253;28;45188;-90
2021/06/21 04:18:11;;;;;;;;;6.50;5.25;;;;;17.39;75.39;99402.69;4981738;28;45375;-89
2021/06/21 04:20:37;;;;;;;;;4.00;4.00;;;;;17.56;75.36;99440.41;4981260;28;48011;-91
2021/06/21 04:23:05;;;;;;;;;3.50;3.25;;;;;17.28;75.76;99396.72;4981098;28;46286;-89
2021/06/21 04:25:30;;;;;;;;;6.25;6.00;;;;;17.34;75.83;99404.97;4981499;28;45298;-88
2021/06/21 04:27:56;;;;;;;;;6.00;5.00;;;;;17.41;75.22;99426.69;4982216;28;45526;-89
2021/06/21 04:30:23;;;;;;;;;6.00;4.50;;;;;17.48;75.56;99432.28;4981050;28;47505;-91
2021/06/21 04:32:50;;;;;;;;;6.25;4.00;;;;;17.45;75.27;99428.06;4997561;28;45536;-89
2021/06/21 04:35:18;;;;;;;;;6.00;6.00;;;;;17.30;75.66;99417.06;4981435;28;45146;-87
2021/06/21 04:37:44;;;;;;;;;4.50;4.50;;;;;17.51;75.49;99446.25;4997462;28;45609;-88
2021/06/21 04:40:12;;;;;;;;;7.25;5.00;;;;;17.46;75.65;99436.97;4980813;28;48283;-89
2021/06/21 04:42:38;;;;;;;;;5.75;5.50;;;;;17.38;75.51;99416.28;4980637;28;45206;-89
2021/06/21 04:45:05;;;;;;;;;5.50;5.00;;;;;17.45;75.79;99430.75;4981173;28;45227;-89
2021/06/21 04:47:31;;;;;;;;;7.50;5.75;;;;;17.13;75.63;99375.81;4980846;28;45392;-89
2021/06/21 04:49:56;;;;;;;;;6.00;6.00;;;;;17.53;75.55;99429.97;4996444;28;47366;-89
2021/06/21 04:52:28;;;;;;;;;6.00;6.00;;;;;17.23;75.52;99384.59;4980658;28;45201;-90
2021/06/21 04:55:00;;;;;;;;;8.00;6.00;;;;;17.50;75.91;99430.28;4997246;28;45240;-90
2021/06/21 04:57:26;;;;;;;;;5.50;5.50;;;;;17.51;75.38;99440.88;4980754;28;45265;-89
2021/06/21 04:59:51;;;;;;;;;4.75;4.75;;;;;17.50;75.89;99441.03;4980309;28;47992;-89
2021/06/21 05:02:17;;;;;;;;;5.25;4.25;;;;;17.42;75.85;99433.75;4980071;28;45157;-88
2021/06/21 05:04:42;;;;;;;;;6.75;5.50;;;;;17.54;75.55;99443.28;4980617;28;45282;-89
2021/06/21 05:07:09;;;;;;;;;5.50;5.50;;;;;17.51;75.98;99442.72;4980628;28;45137;-88
2021/06/21 05:09:34;;;;;;;;;5.75;4.50;;;;;17.41;75.52;99424.88;4980640;28;46988;-91
2021/06/21 05:12:01;;;;;;;;;5.75;5.75;;;;;17.71;76.04;99467.56;4980590;28;45996;-90
2021/06/21 05:14:26;;;;;;;;;7.00;5.00;;;;;17.72;75.73;99451.28;4980909;28;45172;-89
2021/06/21 05:16:51;;;;;;;;;7.00;5.00;;;;;17.70;75.42;99453.28;4980445;28;45356;-88
2021/06/21 05:19:17;;;;;;;;;6.00;6.00;;;;;17.80;75.36;99458.56;4980537;28;46919;-89
2021/06/21 05:21:42;;;;;;;;;10.75;7.00;;;;;17.89;75.35;99478.28;4980239;28;45298;-90
2021/06/21 05:24:08;;;;;;;;;7.50;5.25;;;;;17.75;75.48;99459.00;4996619;28;45137;-90
2021/06/21 05:26:33;;;;;;;;;9.00;6.25;;;;;17.70;75.58;99453.28;4980398;28;45373;-88
2021/06/21 05:28:58;;;;;;;;;7.75;6.75;;;;;17.72;75.23;99462.03;4980297;28;48043;-91
2021/06/21 05:31:24;;;;;;;;;8.75;8.00;;;;;17.87;75.11;99480.25;4980210;28;45493;-91
2021/06/21 05:33:49;;;;;;;;;6.00;6.00;;;;;17.77;74.54;99464.22;4980539;28;45236;-88
2021/06/21 05:36:15;;;;;;;;;7.25;6.00;;;;;17.91;74.94;99474.47;4996645;28;45380;-90
2021/06/21 05:38:40;;;;;;;;;6.50;6.00;;;;;17.86;75.09;99474.03;4980038;28;47360;-88
2021/06/21 05:41:05;;;;;;;;;7.75;6.00;;;;;18.02;74.91;99494.00;4980181;28;45226;-88
2021/06/21 05:43:31;;;;;;;;;8.00;7.00;;;;;17.92;74.91;99461.84;4980036;28;45251;-89
2021/06/21 05:45:57;;;;;;;;;4.50;3.25;;;;;18.06;74.86;99473.88;4979750;28;45181;-87
2021/06/21 05:48:22;;;;;;;;;7.00;6.00;;;;;17.99;74.97;99454.00;4979521;28;48552;-89
2021/06/21 05:50:49;;;;;;;;;6.00;6.00;;;;;18.08;74.42;99458.41;4979852;28;45479;-89
2021/06/21 05:53:14;;;;;;;;;7.75;6.25;;;;;18.22;74.07;99468.56;4980102;28;45130;-89
2021/06/21 05:55:40;;;;;;;;;6.75;6.00;;;;;18.22;73.38;99459.66;4979947;28;45098;-88
2021/06/21 05:58:05;;;;;;;;;6.00;6.00;;;;;18.22;73.80;99456.97;4979392;28;47070;-90
2021/06/21 06:00:30;;;;;;;;;9.25;6.00;;;;;18.58;73.51;99513.28;4989134;28;45165;-87
2021/06/21 06:02:56;;;;;;;;;6.50;6.00;;;;;18.69;73.38;99526.44;5008343;28;45139;-92
2021/06/21 06:05:21;;;;;;;;;8.00;7.50;;;;;18.76;73.19;99527.47;5003814;28;45098;-80
2021/06/21 06:07:47;;;;;;;;;7.50;7.25;;;;;18.82;73.21;99531.38;4996231;28;45878;-80
2021/06/21 06:10:13;;;;;;;;;8.75;6.00;;;;;18.80;72.60;99512.69;4996723;28;45261;-82
2021/06/21 06:12:39;;;;;;;;;7.00;7.00;;;;;18.90;71.99;99539.50;4996655;28;45217;-81
2021/06/21 06:15:06;;;;;;;;;10.25;10.25;;;;;18.89;72.08;99539.69;4996384;28;45167;-81
2021/06/21 06:17:31;;;;;;;;;8.00;8.00;;;;;18.87;72.17;99523.69;4996188;28;46551;-83
2021/06/21 06:19:57;;;;;;;;;7.50;7.00;;;;;18.95;71.88;99539.88;4979064;28;45236;-83
2021/06/21 06:22:22;;;;;;;;;6.75;6.75;;;;;18.94;71.91;99538.19;4996518;28;45192;-83
2021/06/21 06:24:48;;;;;;;;;6.50;5.25;;;;;18.94;71.23;99529.25;4996714;28;45256;-83
2021/06/21 06:27:13;;;;;;;;;7.00;7.00;;;;;19.01;71.82;99550.97;4996464;28;45457;-83
2021/06/21 06:29:39;;;;;;;;;5.50;5.00;;;;;19.06;71.70;99557.56;4996134;28;45213;-83
2021/06/21 06:32:05;;;;;;;;;7.00;6.00;;;;;19.10;71.06;99553.53;4996267;28;45224;-80
2021/06/21 06:34:31;;;;;;;;;6.25;6.25;;;;;19.18;71.22;99563.47;4996623;28;45261;-79
2021/06/21 06:36:56;;;;;;;;;7.25;7.00;;;;;19.26;71.16;99551.88;4996205;28;46389;-80
2021/06/21 06:39:22;;;;;;;;;5.75;5.50;;;;;19.34;71.28;99553.75;4994669;28;45276;-81
2021/06/21 06:41:48;;;;;;;;;4.25;4.25;;;;;19.46;70.79;99550.56;4996350;28;45213;-81
2021/06/21 06:44:13;;;;;;;;;4.00;4.00;;;;;19.57;69.46;99541.31;4996442;28;45280;-82
2021/06/21 06:46:39;;;;;;;;;5.50;5.00;;;;;19.61;69.86;99541.81;4997568;28;46046;-88
2021/06/21 06:49:05;;;;;;;;;6.25;5.25;;;;;19.69;69.80;99540.97;4996678;28;45264;-87
2021/06/21 06:51:36;;;;;;;;;7.00;6.25;;;;;19.78;70.14;99538.09;4979504;28;45345;-89
2021/06/21 06:54:04;;;;;;;;;4.25;4.25;;;;;19.88;69.80;99542.50;4997486;28;45232;-89
2021/06/21 06:59:14;;;;;;;;;6.50;6.00;;;;;20.05;68.66;99557.69;4996271;28;45651;-87
2021/06/21 07:01:39;;;;;;;;;7.00;7.00;;;;;20.06;68.57;99542.31;4996349;28;45323;-88
2021/06/21 07:04:05;;;;;;;;;6.00;4.00;;;;;20.14;68.15;99553.09;4997124;28;45258;-87
2021/06/21 07:06:32;;;;;;;;;4.50;4.50;;;;;20.14;68.50;99540.44;4996864;28;45351;-88
2021/06/21 07:08:57;;;;;;;;;5.75;5.75;;;;;20.14;68.56;99551.25;4996218;28;45613;-87
2021/06/21 07:11:22;;;;;;;;;8.00;6.00;;;;;20.18;68.25;99559.84;4996070;28;45212;-88
2021/06/21 07:13:48;;;;;;;;;6.75;6.75;;;;;20.25;67.77;99563.53;5000092;28;45299;-87
2021/06/21 07:16:13;;;;;;;;;6.75;5.75;;;;;20.23;67.86;99562.84;4999987;28;45953;-86
2021/06/21 07:18:38;;;;;;;;;5.50;5.00;;;;;20.26;67.42;99572.47;5000204;28;45369;-87
2021/06/21 07:21:04;;;;;;;;;6.50;4.75;;;;;20.24;66.51;99569.94;5000255;28;45260;-88
2021/06/21 07:23:30;;;;;;;;;5.00;5.00;;;;;20.16;66.75;99564.56;4999716;28;45293;-89
2021/06/21 07:25:56;;;;;;;;;7.25;6.00;;;;;20.09;66.98;99569.78;5000541;28;46017;-88
2021/06/21 07:28:22;;;;;;;;;5.00;5.00;;;;;20.13;66.88;99576.53;4999280;28;45233;-89
2021/06/21 07:30:48;;;;;;;;;5.00;5.00;;;;;20.19;65.97;99572.31;4999285;28;45326;-86
2021/06/21 07:33:14;;;;;;;;;6.00;4.00;;;;;20.39;64.97;99588.13;5001135;28;45158;-88
2021/06/21 07:35:40;;;;;;;;;7.75;3.25;;;;;20.55;63.48;99580.00;4999940;28;46314;-89
2021/06/21 07:38:10;;;;;;;;;4.00;3.00;;;;;20.75;63.56;99585.00;4999768;28;45582;-88
2021/06/21 07:40:37;;;;;;;;;3.50;3.00;;;;;21.00;62.28;99585.75;4999528;28;45208;-89
2021/06/21 07:43:03;;;;;;;;;5.75;2.50;;;;;21.25;61.11;99580.22;5000670;28;45102;-87
2021/06/21 07:45:29;;;;;;;;;2.00;2.00;;;;;21.43;59.95;99575.34;4999867;28;45133;-88
2021/06/21 07:47:57;;;;;;;;;3.00;2.00;;;;;21.64;59.81;99582.03;4998961;28;45291;-88
2021/06/21 07:50:23;;;;;;;;;4.75;3.00;;;;;21.81;58.88;99594.38;4998899;28;45324;-89
2021/06/21 07:52:48;;;;;;;;;3.00;2.00;;;;;21.98;59.37;99591.56;4999181;28;45321;-86
2021/06/21 07:55:13;;;;;;;;;4.00;2.50;;;;;22.22;59.35;99593.19;4982671;28;46229;-87
2021/06/21 07:57:39;;;;;;;;;2.50;2.50;;;;;22.43;57.68;99602.47;4999779;28;45225;-90
2021/06/21 08:00:05;;;;;;;;;2.00;2.00;;;;;22.54;57.27;99607.44;4999514;28;45225;-90
2021/06/21 08:02:31;;;;;;;;;2.00;2.00;;;;;22.62;55.91;99604.66;4999973;28;45378;-89
2021/06/21 08:04:56;;;;;;;;;2.00;2.00;;;;;22.72;56.79;99601.66;4981992;28;47767;-84
2021/06/21 08:07:21;;;;;;;;;3.00;2.00;;;;;22.83;56.07;99603.03;4981926;28;45944;-89
2021/06/21 08:09:46;;;;;;;;;4.00;3.00;;;;;22.89;55.87;99602.31;4999984;28;45209;-92
2021/06/21 08:12:12;;;;;;;;;2.00;2.00;;;;;22.89;56.05;99600.44;5000110;28;45402;-92
2021/06/21 08:14:40;;;;;;;;;2.75;1.00;;;;;23.00;55.02;99604.53;4999892;28;45300;-89
2021/06/21 08:17:05;;;;;;;;;2.00;2.00;;;;;22.96;54.22;99605.94;5000372;28;45137;-89
2021/06/21 08:19:31;;;;;;;;;3.50;2.00;;;;;22.87;55.18;99599.78;4999634;28;45166;-91
2021/06/21 08:21:56;;;;;;;;;2.00;2.00;;;;;22.88;55.04;99608.75;4999711;28;45153;-91
2021/06/21 08:24:21;;;;;;;;;5.50;2.00;;;;;22.89;55.33;99603.13;4998854;28;46055;-89
2021/06/21 08:26:47;;;;;;;;;2.25;1.00;;;;;22.96;55.39;99603.22;4999534;28;45260;-90
2021/06/21 08:29:12;;;;;;;;;1.00;1.00;;;;;23.03;54.79;99608.72;5000236;28;45279;-90
2021/06/21 08:31:37;;;;;;;;;1.50;1.50;;;;;23.09;54.86;99607.97;4982700;28;45363;-89
2021/06/21 08:34:02;;;;;;;;;2.00;2.00;;;;;23.15;54.60;99611.84;5009201;28;45186;-90
2021/06/21 08:36:28;;;;;;;;;1.50;1.00;;;;;23.21;54.15;99611.06;5000931;28;45229;-91
2021/06/21 08:38:53;;;;;;;;;3.00;2.00;;;;;23.23;54.79;99606.28;4999263;28;45182;-90
2021/06/21 08:41:22;;;;;;;;;1.00;1.00;;;;;23.34;53.74;99613.91;4999817;28;45217;-90
2021/06/21 08:43:48;;;;;;;;;2.00;2.00;;;;;23.41;53.25;99612.13;4998827;28;46113;-90
2021/06/21 08:46:18;;;;;;;;;1.00;1.00;;;;;23.50;53.68;99607.44;4999049;28;45486;-91
2021/06/21 08:48:46;;;;;;;;;1.25;1.25;;;;;23.64;53.52;99613.00;4999646;28;45363;-84
2021/06/21 08:51:13;;;;;;;;;1.00;1.00;;;;;23.76;51.97;99625.03;5000470;28;45141;-90
2021/06/21 08:53:39;;;;;;;;;3.00;1.00;;;;;23.74;52.39;99622.50;5000798;28;45949;-90
2021/06/21 08:56:06;;;;;;;;;1.50;1.00;;;;;23.82;52.13;99615.25;4981634;28;45762;-90
2021/06/21 08:58:31;;;;;;;;;2.50;1.00;;;;;23.97;51.63;99618.75;4999598;28;45272;-93
2021/06/21 09:00:57;;;;;;;;;2.00;2.00;;;;;24.14;50.81;99605.75;4999438;28;45160;-90
2021/06/21 09:03:22;;;;;;;;;4.00;2.00;;;;;24.24;51.04;99610.84;4998468;28;46288;-91
2021/06/21 09:05:47;;;;;;;;;2.50;1.25;;;;;24.32;51.04;99618.00;4999032;28;45287;-91
2021/06/21 09:08:12;;;;;;;;;2.25;1.75;;;;;24.40;50.83;99618.69;4999545;28;45461;-87
2021/06/21 09:10:40;;;;;;;;;1.75;1.75;;;;;24.58;49.96;99623.59;4998468;28;45233;-86
2021/06/21 09:13:05;;;;;;;;;3.00;1.00;;;;;24.73;49.55;99628.97;4998931;28;46164;-90
2021/06/21 09:15:32;;;;;;;;;0.50;0.50;;;;;24.93;49.90;99623.63;4998901;28;45325;-88
2021/06/21 09:17:59;;;;;;;;;2.00;2.00;;;;;25.14;49.46;99627.31;4999702;28;45176;-91
2021/06/21 09:20:25;;;;;;;;;1.75;0.75;;;;;25.29;48.30;99624.41;4998718;28;45236;-90
2021/06/21 09:23:00;;;;;;;;;1.25;1.25;;;;;25.37;47.00;99628.84;4998835;28;45974;-91
2021/06/21 09:25:26;;;;;;;;;1.00;1.00;;;;;25.35;46.49;99630.94;4999410;28;45313;-90
2021/06/21 09:28:00;;;;;;;;;1.25;0.75;;;;;25.34;46.00;99624.69;5003143;28;45184;-90
2021/06/21 09:30:27;;;;;;;;;1.75;1.75;;;;;25.31;45.91;99628.66;4998728;28;45268;-91
2021/06/21 09:32:57;;;;;;;;;3.00;2.00;;;;;25.30;46.23;99628.81;4998125;28;47077;-91
2021/06/21 09:35:26;;;;;;;;;1.25;1.25;;;;;25.36;46.33;99635.38;4998779;28;45407;-90
2021/06/21 09:37:52;;;;;;;;;2.00;2.00;;;;;25.37;46.52;99626.13;4999075;28;45209;-90
2021/06/21 09:40:46;;;;;;;;;1.00;0.50;;;;;25.39;45.88;99640.38;4998794;28;45276;-89
2021/06/21 09:43:32;;;;;;;;;1.75;1.00;;;;;25.47;45.50;99641.03;5002002;28;45380;-92
2021/06/21 09:46:13;;;;;;;;;1.50;1.00;;;;;25.70;45.01;99648.00;4987617;28;45311;-92
2021/06/21 09:48:46;;;;;;;;;2.00;1.00;;;;;25.69;43.50;99626.44;4986756;28;45209;-92
2021/06/21 09:51:24;;;;;;;;;1.25;1.00;;;;;26.03;43.98;99651.88;4986041;28;45188;-93
2021/06/21 09:54:08;;;;;;;;;1.75;1.00;;;;;26.03;43.68;99621.91;4987706;28;47442;-93
2021/06/21 09:56:39;;;;;;;;;1.00;1.00;;;;;26.26;42.50;99660.44;4987728;28;45408;-92
2021/06/21 09:59:35;;;;;;;;;1.00;1.00;;;;;26.27;42.43;99662.13;4985704;28;44960;-92
2021/06/21 10:02:16;;;;;;;;;1.00;1.00;;;;;26.22;42.63;99659.19;4977513;28;45133;-92
2021/06/21 10:04:44;;;;;;;;;0.00;0.00;;;;;26.07;42.90;99645.78;5001887;28;45238;-92
2021/06/21 10:07:28;;;;;;;;;2.75;1.00;;;;;26.05;43.02;99620.63;4985845;28;45083;-92
2021/06/21 10:09:54;;;;;;;;;1.00;1.00;;;;;26.48;43.71;99676.56;4984821;28;45178;-93
2021/06/21 10:12:21;;;;;;;;;1.00;1.00;;;;;26.64;42.03;99664.44;4988257;28;45157;-94
2021/06/21 10:14:46;;;;;;;;;1.00;1.00;;;;;26.34;42.34;99622.09;4983615;28;48334;-93
2021/06/21 10:17:12;;;;;;;;;2.00;1.00;;;;;26.59;41.97;99672.38;4983191;28;44746;-93
2021/06/21 10:19:37;;;;;;;;;6.00;3.00;;;;;26.17;42.31;99634.47;4981174;28;45101;-91
2021/06/21 10:22:03;;;;;;;;;1.00;0.00;;;;;25.93;42.72;99627.72;4981302;28;45442;-92
2021/06/21 10:24:31;;;;;;;;;1.25;1.00;;;;;26.06;42.99;99662.34;4981404;28;47505;-91
2021/06/21 10:26:59;;;;;;;;;0.50;0.50;;;;;26.00;43.11;99675.72;4999708;28;45243;-91
2021/06/21 10:29:24;;;;;;;;;2.00;1.00;;;;;25.99;44.44;99671.28;4982559;28;45214;-89
2021/06/21 10:31:50;;;;;;;;;1.00;1.00;;;;;26.06;43.54;99675.97;4996884;28;45210;-89
2021/06/21 10:34:17;;;;;;;;;1.00;1.00;;;;;26.06;43.83;99665.06;4997133;28;45229;-88
2021/06/21 10:36:48;;;;;;;;;1.50;1.50;;;;;26.28;42.99;99685.63;4996735;28;45480;-88
2021/06/21 10:39:16;;;;;;;;;3.25;1.00;;;;;26.34;42.17;99673.03;4996500;28;45371;-89
2021/06/21 10:42:06;;;;;;;;;1.00;1.00;;;;;26.41;43.42;99670.28;4997223;28;45185;-89
2021/06/21 10:44:58;;;;;;;;;0.75;0.75;;;;;26.47;42.90;99667.56;5013359;28;45621;-92
2021/06/21 10:47:34;;;;;;;;;1.25;1.25;;;;;26.61;42.91;99653.91;5005067;28;44727;-92
2021/06/21 10:50:16;;;;;;;;;1.00;1.00;;;;;26.69;42.86;99645.56;5002736;28;45200;-92
2021/06/21 10:52:48;;;;;;;;;2.25;1.00;;;;;27.02;42.47;99667.31;4978987;28;45497;-85
2021/06/21 10:55:20;;;;;;;;;1.25;0.75;;;;;27.22;42.43;99669.09;4978810;28;48207;-85
2021/06/21 10:57:46;;;;;;;;;0.75;0.75;;;;;27.28;41.80;99654.63;4996449;28;45564;-87
2021/06/21 11:00:17;;;;;;;;;1.00;1.00;;;;;27.46;41.67;99658.53;4978558;28;45202;-86
2021/06/21 11:02:43;;;;;;;;;1.00;1.00;;;;;27.76;41.45;99666.16;4996263;28;45290;-86
2021/06/21 11:05:10;;;;;;;;;2.00;1.00;;;;;28.15;41.11;99667.81;4978581;28;47003;-86
2021/06/21 11:07:36;;;;;;;;;0.25;0.25;;;;;28.42;40.10;99635.63;4996170;28;45244;-85
2021/06/21 11:10:06;;;;;;;;;2.00;0.25;;;;;28.98;38.82;99670.44;4995741;28;45301;-85
2021/06/21 11:12:31;;;;;;;;;0.00;0.00;;;;;29.23;38.74;99671.22;4981207;28;45455;-92
2021/06/21 11:15:02;;;;;;;;;1.33;0.67;;;;;29.45;38.16;99670.72;4997369;28;45634;-90
2021/06/21 11:17:30;;;;;;;;;0.50;0.50;;;;;29.60;38.07;99665.69;4997382;28;45472;-87
2021/06/21 11:19:56;;;;;;;;;0.00;0.00;;;;;29.81;36.82;99662.66;4978372;28;45270;-87
2021/06/21 11:22:42;;;;;;;;;0.00;0.00;;;;;30.11;37.21;99671.72;4996923;28;45276;-88
2021/06/21 11:25:28;;;;;;;;;0.50;0.00;;;;;30.32;36.28;99674.94;4978524;28;47134;-87
2021/06/21 11:27:54;;;;;;;;;0.00;0.00;;;;;30.41;36.58;99668.06;4978270;28;45556;-88
2021/06/21 11:30:41;;;;;;;;;0.50;0.00;;;;;30.45;36.76;99660.22;4995827;28;45557;-88
2021/06/21 11:33:07;;;;;;;;;3.00;0.00;;;;;30.51;36.38;99656.50;4996024;28;45172;-88
2021/06/21 11:35:52;;;;;;;;;0.00;0.00;;;;;30.70;36.58;99657.25;4995408;28;45952;-87
2021/06/21 11:38:21;;;;;;;;;0.00;0.00;;;;;30.97;35.13;99654.81;4995488;28;45564;-90